Time;durP1;ratioP1;P1;durP2;ratioP2;P2;SDS_P1;SDS_P2;PMS_P1;PMS_P2;Temp;Humidity;BMP_temperature;BMP_pressure;BME280_temperature;BME280_humidity;BME280_pressure;Samples;Min_cycle;Max_cycle;Signal;HPM_P1;HPM_P2
2024/04/09 00:01:27;;;;;;;6.77;3.13;;;19.90;79.50;;;;;;4896858;29;20325;-75
2024/04/09 00:03:53;;;;;;;7.17;3.47;;;19.90;80.30;;;;;;4892470;29;20743;-75
2024/04/09 00:06:25;;;;;;;6.10;3.47;;;19.80;80.50;;;;;;4891684;29;20295;-75
2024/04/09 00:08:53;;;;;;;7.47;3.13;;;19.70;81.00;;;;;;4898760;29;20762;-75
2024/04/09 00:11:24;;;;;;;3.90;2.40;;;19.60;81.40;;;;;;4898731;29;20304;-75
2024/04/09 00:13:51;;;;;;;6.40;2.43;;;19.60;81.50;;;;;;4897056;29;20610;-75
2024/04/09 00:16:22;;;;;;;4.00;3.20;;;19.50;81.50;;;;;;4896651;29;20667;-75
2024/04/09 00:18:49;;;;;;;7.07;3.53;;;19.50;81.80;;;;;;4898282;29;20313;-75
2024/04/09 00:21:17;;;;;;;5.33;3.13;;;19.40;81.80;;;;;;4898774;29;20637;-75
2024/04/09 00:23:47;;;;;;;5.37;2.77;;;19.40;82.00;;;;;;4896748;29;20258;-75
2024/04/09 00:26:16;;;;;;;3.87;2.63;;;19.30;82.10;;;;;;4896372;29;20257;-76
2024/04/09 00:28:42;;;;;;;3.20;2.70;;;19.20;82.60;;;;;;4898408;29;20313;-75
2024/04/09 00:31:10;;;;;;;3.43;2.87;;;19.20;83.10;;;;;;4898334;29;20286;-75
2024/04/09 00:33:36;;;;;;;3.97;3.10;;;19.10;83.90;;;;;;4898411;29;20254;-75
2024/04/09 00:36:05;;;;;;;3.07;2.77;;;19.00;85.10;;;;;;4896603;29;20249;-75
2024/04/09 00:38:33;;;;;;;4.63;3.10;;;19.00;86.40;;;;;;4898157;29;20626;-75
2024/04/09 00:41:05;;;;;;;5.80;3.57;;;18.90;86.70;;;;;;4896614;29;20311;-75
2024/04/09 00:43:31;;;;;;;3.63;2.80;;;18.90;88.40;;;;;;4896772;29;20253;-77
2024/04/09 00:46:01;;;;;;;3.43;2.80;;;18.70;89.20;;;;;;4897738;29;20245;-74
2024/04/09 00:48:27;;;;;;;3.33;2.70;;;18.70;90.40;;;;;;4897429;29;20284;-75
2024/04/09 00:50:56;;;;;;;3.07;2.70;;;18.60;91.00;;;;;;4896262;29;20324;-75
2024/04/09 00:53:23;;;;;;;4.97;3.17;;;18.50;92.10;;;;;;4898339;29;20249;-75
2024/04/09 00:55:52;;;;;;;6.43;2.80;;;18.40;92.10;;;;;;4897942;29;20797;-75
2024/04/09 00:58:21;;;;;;;2.93;2.63;;;18.40;91.90;;;;;;4884136;29;20252;-75
2024/04/09 01:00:49;;;;;;;3.00;2.53;;;18.30;91.60;;;;;;4898341;29;20269;-77
2024/04/09 01:03:15;;;;;;;3.13;2.60;;;18.30;91.50;;;;;;4897679;29;20252;-75
2024/04/09 01:05:44;;;;;;;4.33;2.40;;;18.40;92.10;;;;;;4897523;29;20261;-75
2024/04/09 01:08:10;;;;;;;4.60;2.53;;;18.40;92.20;;;;;;4897702;29;20245;-75
2024/04/09 01:10:38;;;;;;;3.17;2.80;;;18.30;92.80;;;;;;4898032;29;21095;-75
2024/04/09 01:13:04;;;;;;;3.93;3.27;;;18.30;92.90;;;;;;4898130;29;20379;-75
2024/04/09 01:15:36;;;;;;;6.57;3.40;;;18.30;94.30;;;;;;4897858;29;20653;-75
2024/04/09 01:18:03;;;;;;;6.80;3.60;;;18.20;94.40;;;;;;4886772;29;20609;-75
2024/04/09 01:20:32;;;;;;;4.50;3.10;;;18.20;95.30;;;;;;4896111;29;20267;-75
2024/04/09 01:23:00;;;;;;;4.20;3.27;;;18.10;95.70;;;;;;4897849;29;20312;-75
2024/04/09 01:25:29;;;;;;;4.93;3.33;;;18.00;96.10;;;;;;4895875;29;20275;-75
2024/04/09 01:27:55;;;;;;;7.13;3.23;;;18.00;95.90;;;;;;4897066;29;20769;-75
2024/04/09 01:30:23;;;;;;;3.67;3.07;;;18.00;96.70;;;;;;4896099;29;20284;-75
2024/04/09 01:32:49;;;;;;;8.03;3.37;;;17.90;96.40;;;;;;4897842;29;20358;-75
2024/04/09 01:35:18;;;;;;;6.37;3.50;;;17.90;96.20;;;;;;4896440;29;20249;-75
2024/04/09 01:37:44;;;;;;;4.20;3.00;;;17.80;96.30;;;;;;4896738;29;20252;-75
2024/04/09 01:40:15;;;;;;;4.77;3.40;;;17.90;96.80;;;;;;4895571;29;20269;-75
2024/04/09 01:42:41;;;;;;;6.30;3.30;;;17.80;96.70;;;;;;4895796;29;20265;-75
2024/04/09 01:45:10;;;;;;;4.00;3.20;;;17.90;95.80;;;;;;4895775;29;20275;-75
2024/04/09 01:47:36;;;;;;;3.80;3.50;;;17.90;94.70;;;;;;4894432;29;20334;-75
2024/04/09 01:50:06;;;;;;;3.93;2.93;;;17.90;95.50;;;;;;4897588;29;20252;-75
2024/04/09 01:52:34;;;;;;;5.13;3.60;;;17.90;94.70;;;;;;4897610;29;20252;-75
2024/04/09 01:55:05;;;;;;;6.40;2.97;;;17.90;95.90;;;;;;4896783;29;20259;-75
2024/04/09 01:57:33;;;;;;;3.93;3.00;;;17.70;95.80;;;;;;4896478;29;20908;-75
2024/04/09 02:00:11;;;;;;;3.73;3.30;;;17.70;95.20;;;;;;4897311;29;20283;-75
2024/04/09 02:02:39;;;;;;;6.37;2.90;;;17.70;94.90;;;;;;4898578;29;20269;-75
2024/04/09 02:05:08;;;;;;;6.70;3.03;;;17.80;93.80;;;;;;4899828;29;20302;-75
2024/04/09 02:07:34;;;;;;;5.07;2.63;;;17.80;93.20;;;;;;4899601;29;20253;-75
2024/04/09 02:10:03;;;;;;;3.17;2.40;;;17.90;92.70;;;;;;4898365;29;20282;-75
2024/04/09 02:12:29;;;;;;;5.87;2.83;;;17.90;91.90;;;;;;4899997;29;20256;-75
2024/04/09 02:15:00;;;;;;;3.43;2.43;;;17.90;91.20;;;;;;4899890;29;20302;-75
2024/04/09 02:17:25;;;;;;;5.10;2.90;;;18.00;91.80;;;;;;4899164;29;20295;-75
2024/04/09 02:19:54;;;;;;;4.60;2.87;;;18.00;92.90;;;;;;4899550;29;20633;-75
2024/04/09 02:22:20;;;;;;;3.73;2.53;;;18.00;93.60;;;;;;4891333;29;20252;-75
2024/04/09 02:24:48;;;;;;;5.93;2.70;;;18.00;93.80;;;;;;4899426;29;20378;-75
2024/04/09 02:27:14;;;;;;;2.83;2.33;;;17.90;94.00;;;;;;4899358;29;20299;-75
2024/04/09 02:29:42;;;;;;;3.20;2.20;;;17.90;94.00;;;;;;4900129;29;20612;-77
2024/04/09 02:32:11;;;;;;;4.30;2.50;;;17.80;94.40;;;;;;4899748;29;20264;-75
2024/04/09 02:34:40;;;;;;;3.50;2.40;;;17.70;94.70;;;;;;4897903;29;20264;-75
2024/04/09 02:37:05;;;;;;;5.70;2.40;;;17.70;94.70;;;;;;4891279;29;20256;-75
2024/04/09 02:39:36;;;;;;;4.80;2.50;;;17.70;95.00;;;;;;4899640;29;20253;-74
2024/04/09 02:42:03;;;;;;;7.70;2.97;;;17.60;95.30;;;;;;4900030;29;20294;-78
2024/04/09 02:44:32;;;;;;;6.53;2.80;;;17.50;96.20;;;;;;4896814;29;20315;-75
2024/04/09 02:46:59;;;;;;;9.07;3.90;;;17.40;96.70;;;;;;4899103;29;20856;-75
2024/04/09 02:49:30;;;;;;;7.40;4.07;;;17.40;97.30;;;;;;4899663;29;20247;-75
2024/04/09 02:51:56;;;;;;;11.40;4.50;;;17.30;98.20;;;;;;4897757;29;20895;-76
2024/04/09 02:54:25;;;;;;;10.20;4.23;;;17.30;97.80;;;;;;4899452;29;20259;-76
2024/04/09 02:56:51;;;;;;;16.00;4.87;;;17.20;98.20;;;;;;4893245;29;20767;-76
2024/04/09 02:59:20;;;;;;;11.97;4.53;;;17.10;98.10;;;;;;4897747;29;20292;-76
2024/04/09 03:01:46;;;;;;;10.83;4.30;;;17.10;98.20;;;;;;4899375;29;20288;-76
2024/04/09 03:04:15;;;;;;;14.83;5.60;;;17.10;98.20;;;;;;4898432;29;20258;-76
2024/04/09 03:06:43;;;;;;;12.43;6.10;;;17.10;98.40;;;;;;4892161;29;20254;-76
2024/04/09 03:09:12;;;;;;;11.63;4.23;;;17.10;98.40;;;;;;4899516;29;20256;-76
2024/04/09 03:11:38;;;;;;;13.90;5.80;;;17.00;98.80;;;;;;4899241;29;20296;-75
2024/04/09 03:14:10;;;;;;;11.50;5.90;;;17.00;98.30;;;;;;4896562;29;20285;-76
2024/04/09 03:16:36;;;;;;;8.37;4.30;;;16.90;97.70;;;;;;4898720;29;20246;-75
2024/04/09 03:19:05;;;;;;;7.70;3.13;;;16.90;97.60;;;;;;4899353;29;20800;-76
2024/04/09 03:21:31;;;;;;;6.60;3.37;;;16.80;97.70;;;;;;4898011;29;20299;-76
2024/04/09 03:24:02;;;;;;;7.17;3.77;;;16.80;97.80;;;;;;4897361;29;20273;-76
2024/04/09 03:26:28;;;;;;;11.50;4.10;;;16.70;97.80;;;;;;4898639;29;20242;-75
2024/04/09 03:28:56;;;;;;;7.07;3.37;;;16.70;97.40;;;;;;4898975;29;20253;-75
2024/04/09 03:31:23;;;;;;;5.40;3.60;;;16.60;97.90;;;;;;4884844;29;20312;-80
2024/04/09 03:33:52;;;;;;;7.80;3.90;;;16.60;98.20;;;;;;4898292;29;20257;-77
2024/04/09 03:36:17;;;;;;;10.23;3.50;;;16.50;98.20;;;;;;4900615;29;20288;-76
2024/04/09 03:38:46;;;;;;;5.60;2.90;;;16.40;97.70;;;;;;4901096;29;21001;-77
2024/04/09 03:41:17;;;;;;;7.03;3.33;;;16.40;98.10;;;;;;4905952;29;20252;-77
2024/04/09 03:43:43;;;;;;;9.80;3.50;;;16.40;98.10;;;;;;4905137;29;20372;-77
2024/04/09 03:46:13;;;;;;;6.37;3.30;;;16.40;98.60;;;;;;4898910;29;20316;-76
2024/04/09 03:48:40;;;;;;;9.60;3.93;;;16.30;98.20;;;;;;4899163;29;20610;-77
2024/04/09 03:51:09;;;;;;;6.80;3.33;;;16.30;98.30;;;;;;4896812;29;20276;-77
2024/04/09 03:53:36;;;;;;;6.50;3.00;;;16.30;98.30;;;;;;4897874;29;20257;-76
2024/04/09 03:56:06;;;;;;;7.37;2.97;;;16.30;98.00;;;;;;4899104;29;20658;-77
2024/04/09 03:58:37;;;;;;;8.07;3.50;;;16.30;97.90;;;;;;4899983;29;20285;-77
2024/04/09 04:01:08;;;;;;;9.73;3.70;;;16.40;98.10;;;;;;4898953;29;20672;-77
2024/04/09 04:03:34;;;;;;;7.07;3.60;;;16.40;97.80;;;;;;4897973;29;20253;-77
2024/04/09 04:06:04;;;;;;;9.83;3.50;;;16.40;97.70;;;;;;4897146;29;20292;-77
2024/04/09 04:08:31;;;;;;;8.87;3.33;;;16.40;97.60;;;;;;4899486;29;20368;-77
2024/04/09 04:11:01;;;;;;;8.73;3.40;;;16.40;97.80;;;;;;4899163;29;20311;-77
2024/04/09 04:13:29;;;;;;;5.17;3.13;;;16.40;97.60;;;;;;4899442;29;20292;-77
2024/04/09 04:16:05;;;;;;;5.40;3.10;;;16.40;97.40;;;;;;4896274;29;20369;-77
2024/04/09 04:18:31;;;;;;;5.60;3.03;;;16.40;98.00;;;;;;4897473;29;20730;-78
2024/04/09 04:21:00;;;;;;;4.13;2.93;;;16.40;98.30;;;;;;4921639;23;20747;-83
2024/04/09 04:23:27;;;;;;;9.77;3.40;;;16.30;98.10;;;;;;4897531;29;20308;-83
2024/04/09 04:26:02;;;;;;;4.50;3.17;;;16.30;98.10;;;;;;4891308;29;20245;-83
2024/04/09 04:28:28;;;;;;;6.87;3.53;;;16.30;98.70;;;;;;4888757;29;20245;-84
2024/04/09 04:30:57;;;;;;;6.53;3.50;;;16.20;98.90;;;;;;4891743;29;20308;-84
2024/04/09 04:33:25;;;;;;;5.63;3.13;;;16.30;99.40;;;;;;4857386;29;20288;-82
2024/04/09 04:35:54;;;;;;;4.97;2.77;;;16.20;99.40;;;;;;4860188;29;20258;-82
2024/04/09 04:38:20;;;;;;;5.73;2.77;;;16.20;99.30;;;;;;4870463;29;20589;-83
2024/04/09 04:40:49;;;;;;;6.20;2.77;;;16.20;99.40;;;;;;4868366;29;20285;-81
2024/04/09 04:43:16;;;;;;;5.37;2.87;;;16.20;99.10;;;;;;4869510;29;20598;-82
2024/04/09 04:45:44;;;;;;;6.30;2.80;;;16.20;99.60;;;;;;4871788;29;20250;-81
2024/04/09 04:48:11;;;;;;;7.03;3.30;;;16.20;99.50;;;;;;4877063;29;20784;-82
2024/04/09 04:50:43;;;;;;;4.47;2.97;;;16.20;99.30;;;;;;4868268;29;20258;-84
2024/04/09 04:53:12;;;;;;;4.97;2.70;;;16.20;99.50;;;;;;4880352;29;20262;-83
2024/04/09 04:55:44;;;;;;;6.03;3.07;;;16.20;99.40;;;;;;4859028;29;20344;-83
2024/04/09 04:58:10;;;;;;;8.50;3.70;;;16.20;99.00;;;;;;4858777;29;20250;-84
2024/04/09 06:47:41;;;;;;;10.80;3.67;;;18.50;99.90;;;;;;4838538;29;20285;-81
2024/04/09 06:50:13;;;;;;;9.20;3.30;;;18.50;99.90;;;;;;4841172;29;20567;-81
2024/04/09 06:52:41;;;;;;;13.27;3.70;;;18.60;99.90;;;;;;4849057;29;20298;-83
2024/04/09 06:55:10;;;;;;;11.67;3.60;;;18.90;99.90;;;;;;4854805;29;20289;-83
2024/04/09 06:57:42;;;;;;;9.67;4.10;;;19.00;99.90;;;;;;4840741;29;20256;-83
2024/04/09 07:00:09;;;;;;;11.23;3.77;;;19.10;99.90;;;;;;4854789;29;20297;-83
2024/04/09 07:02:42;;;;;;;11.50;4.03;;;19.30;99.90;;;;;;4856525;29;20267;-83
2024/04/09 07:05:15;;;;;;;9.83;3.63;;;19.40;99.90;;;;;;4834408;29;20260;-79
2024/04/09 07:07:54;;;;;;;9.90;3.90;;;19.60;99.90;;;;;;4848076;29;20354;-82
2024/04/09 07:10:27;;;;;;;13.70;3.90;;;19.80;99.90;;;;;;4855793;29;20822;-83
2024/04/09 07:13:06;;;;;;;10.97;4.43;;;19.90;99.90;;;;;;4865677;29;20258;-81
2024/04/09 07:15:38;;;;;;;11.77;4.07;;;20.00;99.90;;;;;;4848724;29;20881;-83
2024/04/09 07:18:09;;;;;;;8.53;3.53;;;20.10;99.90;;;;;;4848937;29;20256;-78
2024/04/09 07:20:41;;;;;;;9.70;3.67;;;20.20;99.90;;;;;;4850448;29;20255;-81
2024/04/09 07:23:35;;;;;;;15.37;4.33;;;20.10;99.90;;;;;;4841836;29;20264;-80
2024/04/09 07:26:01;;;;;;;16.03;4.83;;;20.30;99.90;;;;;;4866537;29;20266;-79
2024/04/09 07:28:29;;;;;;;12.77;4.43;;;20.30;99.90;;;;;;4830078;29;20291;-78
2024/04/09 07:30:55;;;;;;;9.40;3.60;;;20.30;99.90;;;;;;4849751;29;20297;-78
2024/04/09 07:33:26;;;;;;;12.37;4.50;;;20.20;99.90;;;;;;4848589;29;20264;-78
2024/04/09 07:35:57;;;;;;;11.30;3.30;;;20.30;99.90;;;;;;4851050;29;20759;-78
2024/04/09 07:38:26;;;;;;;9.57;3.83;;;20.40;99.90;;;;;;4838374;29;20761;-77
2024/04/09 07:40:53;;;;;;;8.60;3.90;;;20.50;99.90;;;;;;4854042;29;20314;-78
2024/04/09 07:43:22;;;;;;;8.57;3.20;;;20.60;99.90;;;;;;4847983;29;20379;-79
2024/04/09 07:45:52;;;;;;;8.23;2.80;;;20.50;99.90;;;;;;4853107;29;20740;-79
2024/04/09 07:48:20;;;;;;;9.53;3.03;;;20.50;99.90;;;;;;4846333;29;20260;-79
2024/04/09 07:50:49;;;;;;;7.13;3.10;;;20.40;99.90;;;;;;4835796;29;20255;-79
2024/04/09 07:53:20;;;;;;;6.97;2.63;;;20.30;99.90;;;;;;4860557;29;20726;-81
2024/04/09 07:55:46;;;;;;;9.07;2.80;;;20.30;99.90;;;;;;4838568;29;20650;-81
2024/04/09 07:58:38;;;;;;;6.53;2.87;;;20.30;99.90;;;;;;4857776;29;20250;-79
2024/04/09 08:01:04;;;;;;;8.33;3.00;;;20.20;99.90;;;;;;4816758;29;20276;-80
2024/04/09 08:03:32;;;;;;;9.10;2.73;;;20.00;99.90;;;;;;4876060;29;20319;-80
2024/04/09 08:06:08;;;;;;;5.13;2.83;;;19.70;99.90;;;;;;4851264;29;20258;-80
2024/04/09 08:08:39;;;;;;;7.87;2.87;;;19.40;99.90;;;;;;4859275;29;20302;-80
2024/04/09 08:11:07;;;;;;;7.87;2.80;;;19.20;99.90;;;;;;4836470;29;20264;-79
2024/04/09 08:13:36;;;;;;;11.10;3.60;;;18.90;99.90;;;;;;4850818;29;20326;-80
2024/04/09 08:16:02;;;;;;;7.43;4.17;;;18.60;99.90;;;;;;4839782;29;20755;-78
2024/04/09 08:18:32;;;;;;;5.70;2.63;;;18.30;99.90;;;;;;4851779;29;20251;-81
2024/04/09 08:20:58;;;;;;;5.10;2.50;;;17.90;99.90;;;;;;4844631;29;20303;-80
2024/04/09 08:24:38;;;;;;;4.33;2.13;;;17.40;99.90;;;;;;4850532;29;20296;-79
2024/04/09 08:27:07;;;;;;;4.10;3.80;;;16.90;99.90;;;;;;4827032;29;20298;-80
2024/04/09 08:29:42;;;;;;;5.07;4.10;;;16.60;99.90;;;;;;4844832;29;20267;-81
2024/04/09 08:32:40;;;;;;;4.97;4.67;;;16.30;99.90;;;;;;4845436;29;20262;-80
2024/04/09 08:35:28;;;;;;;4.40;4.10;;;15.90;99.90;;;;;;4839537;29;20256;-79
2024/04/09 08:38:25;;;;;;;4.60;4.30;;;15.50;99.90;;;;;;4835866;29;20260;-81
2024/04/09 08:40:51;;;;;;;4.40;4.00;;;15.30;99.90;;;;;;4827031;29;20285;-78
2024/04/09 08:43:23;;;;;;;4.90;4.50;;;15.10;99.90;;;;;;4845186;29;20656;-79
2024/04/09 08:45:49;;;;;;;4.60;4.40;;;14.90;99.90;;;;;;4859641;29;20616;-78
2024/04/09 08:48:18;;;;;;;4.30;4.00;;;14.80;99.90;;;;;;4843345;29;20327;-80
2024/04/09 08:50:48;;;;;;;5.30;4.00;;;14.60;99.90;;;;;;4845899;29;20274;-82
2024/04/09 08:54:11;;;;;;;4.30;4.00;;;14.40;99.90;;;;;;4862968;29;20374;-82
2024/04/09 08:56:37;;;;;;;4.10;3.90;;;14.20;99.90;;;;;;4851119;29;20378;-78
2024/04/09 08:59:15;;;;;;;3.93;3.70;;;14.10;99.90;;;;;;4831190;29;20274;-80
2024/04/09 09:01:48;;;;;;;4.10;3.90;;;14.00;99.90;;;;;;4865053;29;20260;-80
2024/04/09 09:04:17;;;;;;;4.00;3.80;;;13.90;99.90;;;;;;4841985;29;20272;-77
2024/04/09 09:06:46;;;;;;;4.03;3.80;;;13.80;99.90;;;;;;4828360;29;20288;-80
2024/04/09 09:09:24;;;;;;;4.20;3.90;;;13.80;99.90;;;;;;4835590;29;20811;-81
2024/04/09 09:11:52;;;;;;;4.10;3.90;;;13.80;99.90;;;;;;4851338;29;20257;-80
2024/04/09 09:14:29;;;;;;;3.80;3.60;;;13.80;99.90;;;;;;4842523;29;20261;-80
2024/04/09 09:17:15;;;;;;;4.30;4.00;;;13.80;99.90;;;;;;4852497;29;20379;-81
2024/04/09 09:20:16;;;;;;;4.17;3.90;;;13.90;99.90;;;;;;4844627;29;20254;-80
2024/04/09 09:23:11;;;;;;;4.30;4.00;;;13.90;99.90;;;;;;4847625;29;20363;-81
2024/04/09 09:26:13;;;;;;;4.10;3.90;;;14.00;99.90;;;;;;4876760;29;20792;-81
2024/04/09 09:29:24;;;;;;;4.07;3.87;;;14.00;99.90;;;;;;4839822;29;20651;-80
2024/04/09 09:32:05;;;;;;;4.10;3.90;;;14.00;99.90;;;;;;4847838;29;20272;-81
2024/04/09 09:34:55;;;;;;;4.10;3.90;;;14.00;99.90;;;;;;4855554;29;20289;-82
2024/04/09 09:37:40;;;;;;;3.97;3.77;;;14.00;99.90;;;;;;4865627;29;20259;-80
2024/04/09 09:40:33;;;;;;;3.90;3.60;;;13.90;99.90;;;;;;4859418;29;20267;-82
2024/04/09 09:43:26;;;;;;;3.90;3.70;;;13.90;99.90;;;;;;4852557;29;20262;-80
2024/04/09 09:46:33;;;;;;;3.60;3.40;;;13.90;99.90;;;;;;4852587;29;20378;-80
2024/04/09 09:49:06;;;;;;;3.70;3.50;;;14.00;99.90;;;;;;4842030;29;20270;-74
2024/04/09 09:51:35;;;;;;;3.70;3.50;;;14.10;99.90;;;;;;4846799;29;20315;-82
2024/04/09 09:54:01;;;;;;;3.70;3.60;;;14.10;99.90;;;;;;4842765;29;20252;-81
2024/04/09 09:56:32;;;;;;;4.30;4.00;;;14.30;99.90;;;;;;4859120;29;20298;-81
2024/04/09 09:59:04;;;;;;;4.20;4.00;;;14.50;99.90;;;;;;4849611;29;20833;-82
2024/04/09 10:01:36;;;;;;;4.00;3.80;;;14.70;99.90;;;;;;4862678;29;20361;-80
2024/04/09 10:04:06;;;;;;;3.73;3.57;;;14.80;99.90;;;;;;4846488;29;20259;-82
2024/04/09 10:06:34;;;;;;;3.80;3.60;;;14.90;99.90;;;;;;4864114;29;20284;-82
2024/04/09 10:09:05;;;;;;;3.37;3.17;;;14.80;99.90;;;;;;4840046;29;20287;-79
2024/04/09 10:11:43;;;;;;;2.90;2.80;;;14.70;99.90;;;;;;4874190;29;20259;-79
2024/04/09 10:14:09;;;;;;;3.23;3.10;;;14.40;99.90;;;;;;4875440;29;20256;-79
2024/04/09 10:16:38;;;;;;;2.97;2.80;;;14.20;99.90;;;;;;4842219;29;20332;-79
2024/04/09 10:19:08;;;;;;;2.70;2.60;;;14.10;99.90;;;;;;4856105;29;20255;-80
2024/04/09 10:21:36;;;;;;;2.90;2.80;;;14.00;99.90;;;;;;4886815;24;20263;-78
2024/04/09 10:24:08;;;;;;;3.67;3.40;;;13.80;99.90;;;;;;4910806;29;20357;-80
2024/04/09 10:26:36;;;;;;;4.27;3.80;;;13.70;99.90;;;;;;4893126;29;20293;-78
2024/04/09 10:29:03;;;;;;;4.00;3.80;;;13.70;99.90;;;;;;4913355;29;20613;-78
2024/04/09 10:31:32;;;;;;;4.67;4.20;;;13.70;99.90;;;;;;4903637;29;20368;-80
2024/04/09 10:33:58;;;;;;;2.00;1.90;;;13.80;99.90;;;;;;4883251;29;20253;-79
2024/04/09 10:36:30;;;;;;;1.30;1.30;;;14.00;99.90;;;;;;4884113;29;20257;-79
2024/04/09 10:38:57;;;;;;;3.73;3.53;;;14.20;99.90;;;;;;4870575;29;20283;-79
2024/04/09 10:41:26;;;;;;;4.30;3.50;;;14.40;99.90;;;;;;4879027;29;20254;-79
2024/04/09 10:43:52;;;;;;;2.37;2.27;;;14.70;99.90;;;;;;4892710;29;20356;-79
2024/04/09 10:46:21;;;;;;;2.47;2.37;;;14.90;99.90;;;;;;4872547;29;20761;-79
2024/04/09 10:48:48;;;;;;;2.20;2.10;;;14.90;99.90;;;;;;4910760;29;20256;-80
2024/04/09 10:51:16;;;;;;;2.00;1.90;;;14.90;99.90;;;;;;4888883;29;20269;-79
2024/04/09 10:53:44;;;;;;;3.70;3.50;;;14.80;99.90;;;;;;4873187;29;20263;-79
2024/04/09 10:56:14;;;;;;;3.63;3.43;;;14.70;99.90;;;;;;4882025;29;20252;-79
2024/04/09 10:58:40;;;;;;;3.80;3.40;;;14.60;99.90;;;;;;4875254;29;20382;-78
2024/04/09 11:01:12;;;;;;;3.90;3.70;;;14.30;99.90;;;;;;4884398;29;20253;-78
2024/04/09 11:03:38;;;;;;;4.10;3.90;;;14.10;99.90;;;;;;4869884;29;20264;-79
2024/04/09 11:06:07;;;;;;;4.00;3.70;;;13.70;99.90;;;;;;4884465;29;20309;-79
2024/04/09 11:08:34;;;;;;;4.60;4.20;;;13.60;99.90;;;;;;4886559;29;20256;-79
2024/04/09 11:11:05;;;;;;;4.67;4.47;;;13.50;99.90;;;;;;4869691;29;20288;-80
2024/04/09 11:13:31;;;;;;;4.70;4.40;;;13.30;99.90;;;;;;4867486;29;20798;-83
2024/04/09 11:16:01;;;;;;;4.70;4.40;;;13.20;99.90;;;;;;4878166;29;20253;-83
2024/04/09 11:34:53;;;;;;;;;;;;;;;;;;;;;
2024/04/09 11:38:20;;;;;;;5.23;4.83;;;12.30;99.90;;;;;;4758378;29;20260;-82
2024/04/09 11:41:03;;;;;;;5.40;5.10;;;12.10;99.90;;;;;;4783512;29;20251;-82
2024/04/09 11:44:24;;;;;;;5.40;5.00;;;12.00;99.90;;;;;;4759973;30;20376;-83
2024/04/09 11:47:24;;;;;;;5.30;5.00;;;11.90;99.90;;;;;;4840759;29;20764;-82
2024/04/09 11:50:09;;;;;;;5.30;5.00;;;11.80;99.90;;;;;;4869974;29;20262;-82
2024/04/09 11:52:46;;;;;;;5.00;4.80;;;11.80;99.90;;;;;;4865384;29;20323;-82
2024/04/09 11:55:44;;;;;;;5.40;5.00;;;11.80;99.90;;;;;;4880054;29;20295;-82
2024/04/09 11:58:51;;;;;;;;;;;;;;;;;;;;;
2024/04/09 12:01:28;;;;;;;5.07;4.77;;;11.90;99.90;;;;;;4858932;29;20271;-82
2024/04/09 12:04:27;;;;;;;4.50;4.30;;;12.00;99.90;;;;;;4872915;29;20634;-83
2024/04/09 12:07:09;;;;;;;4.60;4.30;;;12.00;99.90;;;;;;4839625;29;20302;-83
2024/04/09 12:10:10;;;;;;;4.50;4.30;;;11.90;99.90;;;;;;4899651;29;20273;-82
2024/04/09 12:12:54;;;;;;;4.90;4.70;;;11.90;99.90;;;;;;4870554;29;20292;-83
2024/04/09 12:15:38;;;;;;;4.33;4.13;;;11.80;99.90;;;;;;4885874;29;20626;-82
2024/04/09 12:18:22;;;;;;;1.97;1.93;;;11.80;99.90;;;;;;4886403;29;20703;-83
2024/04/09 12:20:59;;;;;;;1.40;1.40;;;11.80;99.90;;;;;;4871928;29;20290;-82
2024/04/09 12:23:38;;;;;;;1.30;1.30;;;11.80;99.90;;;;;;4877225;29;20307;-82
2024/04/09 12:26:13;;;;;;;1.33;1.33;;;11.70;99.90;;;;;;4879880;29;20309;-82
2024/04/09 12:28:49;;;;;;;2.17;2.00;;;11.70;99.90;;;;;;4878667;29;20265;-83
2024/04/09 12:31:35;;;;;;;1.60;1.50;;;11.80;99.90;;;;;;4864713;29;20251;-83
2024/04/09 12:34:19;;;;;;;2.03;1.40;;;11.80;99.90;;;;;;4873432;29;20313;-81
2024/04/09 12:37:19;;;;;;;1.77;1.30;;;11.70;99.90;;;;;;4888057;29;20253;-83
2024/04/09 12:40:14;;;;;;;;;;;;;;;;;;;;;
2024/04/09 12:42:56;;;;;;;2.80;2.70;;;11.60;99.90;;;;;;4867290;29;20258;-82
2024/04/09 12:45:38;;;;;;;1.40;1.40;;;11.50;99.90;;;;;;4878377;29;20738;-82
2024/04/09 12:48:11;;;;;;;4.10;1.87;;;11.40;99.90;;;;;;4878715;29;20766;-82
2024/04/09 12:50:45;;;;;;;1.60;1.50;;;11.40;99.90;;;;;;4879166;29;20280;-83
2024/04/09 12:53:19;;;;;;;1.50;1.40;;;11.50;99.90;;;;;;4871731;29;20254;-81
2024/04/09 12:55:53;;;;;;;1.30;1.30;;;11.50;99.90;;;;;;4867494;29;20262;-82
2024/04/09 12:58:24;;;;;;;1.30;1.30;;;11.60;99.90;;;;;;4869613;29;20929;-79
2024/04/09 13:00:50;;;;;;;1.20;1.20;;;11.70;99.90;;;;;;4891206;29;20249;-79
2024/04/09 13:03:18;;;;;;;1.27;1.27;;;11.70;99.90;;;;;;4885685;29;20308;-79
2024/04/09 13:05:47;;;;;;;1.70;1.60;;;11.80;99.90;;;;;;4881304;29;20296;-78
2024/04/09 13:08:15;;;;;;;3.83;1.90;;;11.70;99.90;;;;;;4887964;29;20435;-79
2024/04/09 13:10:44;;;;;;;5.80;5.30;;;11.80;99.90;;;;;;4889614;29;20292;-79
2024/04/09 13:13:13;;;;;;;5.20;4.80;;;11.70;99.90;;;;;;4889514;29;20257;-79
2024/04/09 13:15:39;;;;;;;4.53;4.30;;;11.60;99.90;;;;;;4891582;29;20245;-78
2024/04/09 13:18:07;;;;;;;3.03;2.93;;;11.50;99.90;;;;;;4892157;29;20754;-79
2024/04/09 13:20:33;;;;;;;3.00;2.90;;;11.40;99.90;;;;;;4876006;29;20250;-79
2024/04/09 13:23:04;;;;;;;4.77;4.43;;;11.50;99.90;;;;;;4884041;29;20261;-78
2024/04/09 13:25:30;;;;;;;4.30;4.10;;;11.60;99.90;;;;;;4882519;29;20622;-79
2024/04/09 13:27:59;;;;;;;5.03;4.63;;;11.80;99.90;;;;;;4881744;29;20259;-79
2024/04/09 13:30:25;;;;;;;4.87;4.60;;;11.90;99.90;;;;;;4887738;29;20289;-80
2024/04/09 13:32:53;;;;;;;4.67;4.37;;;12.00;99.90;;;;;;4892052;29;20258;-80
2024/04/09 13:35:19;;;;;;;5.00;4.70;;;12.10;99.90;;;;;;4885077;29;20299;-79
2024/04/09 13:37:48;;;;;;;5.10;3.57;;;12.20;99.90;;;;;;4881496;29;20251;-78
2024/04/09 13:40:17;;;;;;;5.00;4.70;;;12.30;99.90;;;;;;4882974;29;20807;-80
2024/04/09 13:42:47;;;;;;;2.47;2.27;;;12.40;99.90;;;;;;4879933;29;20261;-79
2024/04/09 13:45:16;;;;;;;4.40;4.10;;;12.60;99.90;;;;;;4874080;29;20271;-83
2024/04/09 13:47:50;;;;;;;5.10;4.60;;;12.60;99.90;;;;;;4868890;29;20323;-81
2024/04/09 13:50:17;;;;;;;4.70;4.40;;;12.60;99.90;;;;;;4867509;29;20265;-81
2024/04/09 13:52:47;;;;;;;3.80;3.60;;;12.70;99.90;;;;;;4881822;29;20352;-82
2024/04/09 13:55:17;;;;;;;4.10;3.77;;;12.80;99.90;;;;;;4878330;29;20314;-82
2024/04/09 13:58:19;;;;;;;4.10;3.90;;;12.80;99.90;;;;;;4882665;29;20255;-82
2024/04/09 14:01:21;;;;;;;;;;;;;;;;;;;;;
2024/04/09 14:08:01;;;;;;;2.60;2.50;;;12.50;99.90;;;;;;4858698;29;20299;-82
2024/04/09 14:10:30;;;;;;;3.30;3.00;;;12.40;99.90;;;;;;4876877;29;20261;-78
2024/04/09 14:12:58;;;;;;;2.40;2.30;;;12.30;99.90;;;;;;4887942;29;20293;-79
2024/04/09 14:15:24;;;;;;;2.03;2.03;;;12.30;99.90;;;;;;4887119;29;20245;-79
2024/04/09 14:17:54;;;;;;;2.67;2.53;;;12.20;99.90;;;;;;4878093;29;20258;-78
2024/04/09 14:20:20;;;;;;;1.80;1.80;;;12.20;99.90;;;;;;4890716;29;20255;-79
2024/04/09 14:22:49;;;;;;;2.10;2.00;;;12.10;99.90;;;;;;4887027;29;20254;-79
2024/04/09 14:25:15;;;;;;;4.20;2.50;;;12.10;99.90;;;;;;4891628;29;20365;-79
2024/04/09 14:27:46;;;;;;;3.70;3.50;;;12.10;99.90;;;;;;4892543;29;20261;-78
2024/04/09 14:30:12;;;;;;;3.77;3.57;;;12.10;99.90;;;;;;4875474;29;20246;-78
2024/04/09 14:32:40;;;;;;;3.70;3.50;;;11.90;99.90;;;;;;4888022;29;20312;-76
2024/04/09 14:35:06;;;;;;;4.20;4.00;;;11.90;99.90;;;;;;4873176;29;20262;-78
2024/04/09 14:37:34;;;;;;;5.00;4.60;;;11.80;99.90;;;;;;4876973;29;20306;-78
2024/04/09 14:40:00;;;;;;;4.50;4.30;;;11.80;99.90;;;;;;4875281;29;20267;-77
2024/04/09 14:42:29;;;;;;;4.70;4.40;;;11.90;99.90;;;;;;4880597;29;20293;-77
2024/04/09 14:44:57;;;;;;;3.30;3.10;;;11.90;99.90;;;;;;4890317;29;20671;-76
2024/04/09 14:47:26;;;;;;;3.47;3.33;;;12.10;99.90;;;;;;4890754;29;20851;-77
2024/04/09 14:49:52;;;;;;;4.40;4.10;;;12.10;99.90;;;;;;4895486;29;20292;-77
2024/04/09 14:52:21;;;;;;;4.10;3.90;;;12.10;99.90;;;;;;4882855;29;20263;-77
2024/04/09 14:54:48;;;;;;;4.40;4.10;;;12.20;99.90;;;;;;4893790;29;20640;-77
2024/04/09 14:57:17;;;;;;;4.10;3.90;;;12.10;99.90;;;;;;4891254;29;20258;-77
2024/04/09 14:59:42;;;;;;;4.00;3.80;;;12.10;99.90;;;;;;4882714;29;20254;-78
2024/04/09 15:02:16;;;;;;;4.10;3.90;;;12.30;99.90;;;;;;4892458;29;20312;-78
2024/04/09 15:04:42;;;;;;;3.60;3.40;;;12.30;99.90;;;;;;4883886;29;20648;-78
2024/04/09 15:07:10;;;;;;;3.70;3.50;;;12.40;99.90;;;;;;4895324;29;20262;-76
2024/04/09 15:09:38;;;;;;;3.87;3.50;;;12.50;99.90;;;;;;4876353;29;20345;-77
2024/04/09 15:12:07;;;;;;;4.13;3.83;;;12.60;99.90;;;;;;4895963;29;20289;-77
2024/04/09 15:14:34;;;;;;;3.70;3.50;;;12.50;99.90;;;;;;4872674;29;20286;-79
2024/04/09 15:17:03;;;;;;;4.60;3.70;;;12.40;99.90;;;;;;4870384;29;20302;-80
2024/04/09 15:19:34;;;;;;;3.90;3.60;;;12.40;99.90;;;;;;4866441;29;20641;-80
2024/04/09 15:22:02;;;;;;;3.63;3.43;;;12.40;99.90;;;;;;4887860;29;20283;-80
2024/04/09 15:24:29;;;;;;;3.43;3.13;;;12.30;99.90;;;;;;4873921;29;20247;-79